createdAt,value
2022-08-27T00:00:43.382Z,25.20
2022-08-27T00:03:10.325Z,25.20
2022-08-27T00:05:37.083Z,25.10
2022-08-27T00:08:07.066Z,25.10
2022-08-27T00:10:33.998Z,25.10
2022-08-27T00:13:00.834Z,25.10
2022-08-27T00:15:27.688Z,25.10
2022-08-27T00:17:54.342Z,25.10
2022-08-27T00:20:21.988Z,25.10
2022-08-27T00:22:48.696Z,25.10
2022-08-27T00:25:15.366Z,25.10
2022-08-27T00:27:42.200Z,25.10
2022-08-27T00:30:11.001Z,25.10
2022-08-27T00:32:38.701Z,25.00
2022-08-27T00:35:05.775Z,25.00
2022-08-27T00:37:32.625Z,25.00
2022-08-27T00:39:59.430Z,24.80
2022-08-27T00:42:26.369Z,24.70
2022-08-27T00:44:56.054Z,24.60
2022-08-27T00:47:24.226Z,24.50
2022-08-27T00:49:56.588Z,24.40
2022-08-27T00:52:47.438Z,24.40
2022-08-27T00:55:18.490Z,24.40
2022-08-27T00:57:46.018Z,24.40
2022-08-27T01:00:15.625Z,24.40
2022-08-27T01:02:43.297Z,24.40
2022-08-27T01:05:12.724Z,24.40
2022-08-27T01:07:41.067Z,24.40
2022-08-27T01:10:10.434Z,24.50
2022-08-27T01:12:37.177Z,24.50
2022-08-27T01:15:08.004Z,24.40
2022-08-27T01:17:37.809Z,24.40
2022-08-27T01:20:08.708Z,24.40
2022-08-27T01:22:41.147Z,24.40
2022-08-27T01:25:09.460Z,24.40
2022-08-27T01:27:36.190Z,24.40
2022-08-27T01:30:03.409Z,24.40
2022-08-27T01:32:31.564Z,24.40
2022-08-27T01:34:58.809Z,24.40
2022-08-27T01:37:25.738Z,24.40
2022-08-27T01:39:54.493Z,24.40
2022-08-27T01:42:30.968Z,24.40
2022-08-27T01:45:05.847Z,24.50
2022-08-27T01:47:32.684Z,24.40
2022-08-27T01:50:00.454Z,24.50
2022-08-27T01:52:28.838Z,24.50
2022-08-27T01:54:55.491Z,24.50
2022-08-27T01:57:25.901Z,24.50
2022-08-27T01:59:53.272Z,24.50
2022-08-27T02:02:21.121Z,24.60
2022-08-27T02:04:47.819Z,24.60
2022-08-27T02:07:14.475Z,24.60
2022-08-27T02:09:41.108Z,24.60
2022-08-27T02:12:07.948Z,24.60
2022-08-27T02:14:35.097Z,24.60
2022-08-27T02:17:02.110Z,24.60
2022-08-27T02:19:28.787Z,24.60
2022-08-27T02:22:00.076Z,24.60
2022-08-27T02:24:28.316Z,24.60
2022-08-27T02:26:57.737Z,24.60
2022-08-27T02:29:24.509Z,24.60
2022-08-27T02:31:51.695Z,24.60
2022-08-27T02:34:18.491Z,24.60
2022-08-27T02:36:45.117Z,24.60
2022-08-27T02:39:11.784Z,24.60
2022-08-27T02:41:38.431Z,24.60
2022-08-27T02:44:07.853Z,24.60
2022-08-27T02:46:38.697Z,24.60
2022-08-27T02:49:05.595Z,24.60
2022-08-27T02:51:32.398Z,24.50
2022-08-27T02:53:59.051Z,24.50
2022-08-27T02:56:25.839Z,24.50
2022-08-27T02:58:52.468Z,24.50
2022-08-27T03:01:19.189Z,24.40
2022-08-27T03:03:45.886Z,24.30
2022-08-27T03:06:12.844Z,24.30
2022-08-27T03:08:52.000Z,24.10
2022-08-27T03:11:19.850Z,24.00
2022-08-27T03:13:46.502Z,23.90
2022-08-27T03:16:13.214Z,23.80
2022-08-27T03:18:40.020Z,23.70
2022-08-27T03:21:08.135Z,23.70
2022-08-27T03:23:35.009Z,23.60
2022-08-27T03:26:04.048Z,23.60
2022-08-27T03:28:34.678Z,23.50
2022-08-27T03:31:03.620Z,23.50
2022-08-27T03:33:31.949Z,23.40
2022-08-27T03:35:58.572Z,23.40
2022-08-27T03:38:25.404Z,23.40
2022-08-27T03:40:52.360Z,23.40
2022-08-27T03:43:20.430Z,23.40
2022-08-27T03:46:00.792Z,23.40
2022-08-27T03:48:28.993Z,23.40
2022-08-27T03:50:55.643Z,23.50
2022-08-27T03:53:22.337Z,23.50
2022-08-27T03:55:49.001Z,23.60
2022-08-27T03:58:15.852Z,23.60
2022-08-27T04:00:42.549Z,23.70
2022-08-27T04:03:11.547Z,23.70
2022-08-27T04:05:38.263Z,23.80
2022-08-27T04:08:05.304Z,23.80
2022-08-27T04:10:34.869Z,23.80
2022-08-27T04:13:01.757Z,23.90
2022-08-27T04:15:28.405Z,23.90
2022-08-27T04:17:55.052Z,23.90
2022-08-27T04:20:36.959Z,24.00
2022-08-27T04:23:04.361Z,24.00
2022-08-27T04:25:31.579Z,23.90
2022-08-27T04:27:58.228Z,23.90
2022-08-27T04:30:24.907Z,24.00
2022-08-27T04:32:51.593Z,24.00
2022-08-27T04:35:18.321Z,24.00
2022-08-27T04:37:44.963Z,24.00
2022-08-27T04:40:11.719Z,24.10
2022-08-27T04:42:38.494Z,24.10
2022-08-27T04:45:05.698Z,24.10
2022-08-27T04:47:32.338Z,24.10
2022-08-27T04:49:59.389Z,24.00
2022-08-27T04:52:26.049Z,24.10
2022-08-27T04:54:53.486Z,24.10
2022-08-27T04:57:20.797Z,24.00
2022-08-27T04:59:47.490Z,24.00
2022-08-27T05:02:14.133Z,24.10
2022-08-27T05:04:41.010Z,24.10
2022-08-27T05:07:08.244Z,24.10
2022-08-27T05:09:34.987Z,24.10
2022-08-27T05:12:01.795Z,24.10
2022-08-27T05:14:32.606Z,24.10
2022-08-27T05:16:59.292Z,24.10
2022-08-27T05:19:26.005Z,24.10
2022-08-27T05:21:53.849Z,24.10
2022-08-27T05:24:21.146Z,24.10
2022-08-27T05:26:47.871Z,24.10
2022-08-27T05:29:14.623Z,24.10
2022-08-27T05:31:41.489Z,24.20
2022-08-27T05:34:11.487Z,24.10
2022-08-27T05:36:49.167Z,24.20
2022-08-27T05:39:16.034Z,24.10
2022-08-27T05:41:43.106Z,24.10
2022-08-27T05:44:39.067Z,24.10
2022-08-27T05:46:56.550Z,24.10
2022-08-27T05:49:23.215Z,24.10
2022-08-27T05:51:49.866Z,24.00
2022-08-27T05:54:19.401Z,24.00
2022-08-27T05:56:46.771Z,23.90
2022-08-27T05:59:31.924Z,24.00
2022-08-27T06:02:01.626Z,23.90
2022-08-27T06:04:28.266Z,23.90
2022-08-27T06:06:54.913Z,23.90
2022-08-27T06:09:23.304Z,23.90
2022-08-27T06:11:49.990Z,23.90
2022-08-27T06:14:16.693Z,23.90
2022-08-27T06:16:43.948Z,23.90
2022-08-27T06:19:12.136Z,23.90
2022-08-27T06:21:40.063Z,24.00
2022-08-27T06:24:06.776Z,24.00
2022-08-27T06:26:33.450Z,24.00
2022-08-27T06:29:06.349Z,24.10
2022-08-27T06:31:33.269Z,24.10
2022-08-27T06:34:03.101Z,24.10
2022-08-27T06:36:38.166Z,24.20
2022-08-27T06:39:05.247Z,24.20
2022-08-27T06:41:32.462Z,24.20
2022-08-27T06:43:59.112Z,24.30
2022-08-27T06:46:27.009Z,24.30
2022-08-27T06:48:54.603Z,24.40
2022-08-27T06:51:24.400Z,24.40
2022-08-27T06:53:52.295Z,24.40
2022-08-27T06:56:19.017Z,24.50
2022-08-27T06:58:45.647Z,24.50
2022-08-27T07:01:20.051Z,24.50
2022-08-27T07:03:46.808Z,24.60
2022-08-27T07:06:16.443Z,24.70
2022-08-27T07:08:43.326Z,24.70
2022-08-27T07:11:10.935Z,24.70
2022-08-27T07:13:37.831Z,24.70
2022-08-27T07:16:06.467Z,24.80
2022-08-27T07:18:33.939Z,24.80
2022-08-27T07:21:00.950Z,24.80
2022-08-27T07:23:28.488Z,24.80
2022-08-27T07:25:55.163Z,24.90
2022-08-27T07:28:21.816Z,24.90
2022-08-27T07:30:48.532Z,25.00
2022-08-27T07:33:15.322Z,25.00
2022-08-27T07:35:42.081Z,25.00
2022-08-27T07:38:11.387Z,25.00
2022-08-27T07:40:38.290Z,25.10
2022-08-27T07:43:26.502Z,25.10
2022-08-27T07:45:56.116Z,25.10
2022-08-27T07:48:23.896Z,25.20
2022-08-27T07:50:51.928Z,25.20
2022-08-27T07:53:19.163Z,25.20
2022-08-27T07:55:45.949Z,25.30
2022-08-27T07:58:16.900Z,25.30
2022-08-27T08:00:45.455Z,25.30
2022-08-27T08:03:12.279Z,25.20
2022-08-27T08:05:45.035Z,25.20
2022-08-27T08:08:12.264Z,25.30
2022-08-27T08:10:39.325Z,25.40
2022-08-27T08:13:06.761Z,25.50
2022-08-27T08:15:34.185Z,25.50
2022-08-27T08:18:00.902Z,25.50
2022-08-27T08:20:56.577Z,25.60
2022-08-27T08:23:14.449Z,25.60
2022-08-27T08:25:41.809Z,25.60
2022-08-27T08:28:09.232Z,25.60
2022-08-27T08:30:36.072Z,25.60
2022-08-27T08:33:02.804Z,25.60
2022-08-27T08:35:35.080Z,25.60
2022-08-27T08:38:07.620Z,25.60
2022-08-27T08:40:42.498Z,25.70
2022-08-27T08:43:21.357Z,25.80
2022-08-27T08:45:48.452Z,25.90
2022-08-27T08:48:17.430Z,26.00
2022-08-27T08:50:47.280Z,26.20
2022-08-27T08:53:36.901Z,26.40
2022-08-27T08:56:05.751Z,26.60
2022-08-27T08:58:32.306Z,26.80
2022-08-27T09:00:59.968Z,27.00
2022-08-27T09:03:27.080Z,27.10
2022-08-27T09:06:02.864Z,27.20
2022-08-27T09:08:38.942Z,27.20
2022-08-27T09:11:29.994Z,27.20
2022-08-27T09:14:01.847Z,27.30
2022-08-27T09:16:28.743Z,27.30
2022-08-27T09:18:55.486Z,27.30
2022-08-27T09:21:49.449Z,27.30
2022-08-27T09:24:32.622Z,27.30
2022-08-27T09:26:59.260Z,27.40
2022-08-27T09:29:27.359Z,27.50
2022-08-27T09:32:08.413Z,27.50
2022-08-27T09:34:39.690Z,27.70
2022-08-27T09:37:15.623Z,27.90
2022-08-27T09:40:22.747Z,28.40
2022-08-27T09:42:55.419Z,29.20
2022-08-27T09:45:26.894Z,29.80
2022-08-27T09:47:55.392Z,30.20
2022-08-27T09:50:24.480Z,30.40
2022-08-27T09:52:55.041Z,30.50
2022-08-27T09:55:44.375Z,30.40
2022-08-27T09:58:23.996Z,30.20
2022-08-27T10:01:05.087Z,30.00
2022-08-27T10:03:33.549Z,29.80
2022-08-27T10:06:00.464Z,29.60
2022-08-27T10:08:47.219Z,29.40
2022-08-27T10:11:52.084Z,29.30
2022-08-27T10:14:30.703Z,29.40
2022-08-27T10:17:21.019Z,29.60
2022-08-27T10:20:11.529Z,30.00
2022-08-27T10:23:27.235Z,30.40
2022-08-27T10:26:00.128Z,31.10
2022-08-27T10:28:38.889Z,31.70
2022-08-27T10:31:26.820Z,32.40
2022-08-27T10:34:21.047Z,33.30
2022-08-27T10:36:53.564Z,34.50
2022-08-27T10:39:48.252Z,35.40
2022-08-27T10:42:28.284Z,36.30
2022-08-27T10:45:28.787Z,36.60
2022-08-27T10:48:06.651Z,36.60
2022-08-27T10:50:34.961Z,36.30
2022-08-27T10:53:12.239Z,35.80
2022-08-27T10:55:41.400Z,35.30
2022-08-27T10:58:14.295Z,34.70
2022-08-27T11:00:44.130Z,34.30
2022-08-27T11:03:14.155Z,34.00
2022-08-27T11:05:46.144Z,33.70
2022-08-27T11:08:19.751Z,33.50
2022-08-27T11:10:48.921Z,33.70
2022-08-27T11:13:30.574Z,34.00
2022-08-27T11:15:57.282Z,34.30
2022-08-27T11:18:39.238Z,34.70
2022-08-27T11:21:14.895Z,35.00
2022-08-27T11:24:04.537Z,35.30
2022-08-27T11:26:31.603Z,35.60
2022-08-27T11:29:00.238Z,35.70
2022-08-27T11:31:32.982Z,35.60
2022-08-27T11:34:02.672Z,35.40
2022-08-27T11:36:29.290Z,35.20
2022-08-27T11:39:09.639Z,35.00
2022-08-27T11:42:02.047Z,34.70
2022-08-27T11:44:28.707Z,34.30
2022-08-27T11:46:58.076Z,33.90
2022-08-27T11:49:35.421Z,33.70
2022-08-27T11:52:04.284Z,33.40
2022-08-27T11:54:44.231Z,33.20
2022-08-27T11:57:15.560Z,32.90
2022-08-27T11:59:43.513Z,32.70
2022-08-27T12:02:26.011Z,32.40
2022-08-27T12:04:55.394Z,32.20
2022-08-27T12:07:30.735Z,32.10
2022-08-27T12:10:00.116Z,31.80
2022-08-27T12:12:52.727Z,31.70
2022-08-27T12:15:35.196Z,31.60
2022-08-27T12:18:23.707Z,31.40
2022-08-27T12:20:58.263Z,31.40
2022-08-27T12:23:43.894Z,31.50
2022-08-27T12:26:25.757Z,31.60
2022-08-27T12:29:12.790Z,31.60
2022-08-27T12:31:40.223Z,31.50
2022-08-27T12:34:12.158Z,31.50
2022-08-27T12:36:38.821Z,31.40
2022-08-27T12:39:06.005Z,31.20
2022-08-27T12:41:43.902Z,31.20
2022-08-27T12:44:13.511Z,31.20
2022-08-27T12:46:51.615Z,31.40
2022-08-27T12:49:38.571Z,31.50
2022-08-27T12:52:14.284Z,31.60
2022-08-27T12:55:02.470Z,31.40
2022-08-27T12:57:41.304Z,31.30
2022-08-27T13:00:15.225Z,31.00
2022-08-27T13:03:09.990Z,30.90
2022-08-27T13:05:42.299Z,30.60
2022-08-27T13:08:44.509Z,30.50
2022-08-27T13:11:21.744Z,30.30
2022-08-27T13:13:49.301Z,30.10
2022-08-27T13:16:20.393Z,30.00
2022-08-27T13:18:48.545Z,29.90
2022-08-27T13:21:32.610Z,29.90
2022-08-27T13:24:01.461Z,29.80
2022-08-27T13:26:31.426Z,29.90
2022-08-27T13:29:03.230Z,30.00
2022-08-27T13:31:31.225Z,30.10
2022-08-27T13:33:58.710Z,30.10
2022-08-27T13:36:33.418Z,30.20
2022-08-27T13:39:02.038Z,30.20
2022-08-27T13:41:35.947Z,30.30
2022-08-27T13:44:10.695Z,30.40
2022-08-27T13:46:45.298Z,30.40
2022-08-27T13:49:33.587Z,30.50
2022-08-27T13:52:15.621Z,30.60
2022-08-27T13:54:50.609Z,30.70
2022-08-27T13:57:28.226Z,30.70
2022-08-27T13:59:54.874Z,30.70
2022-08-27T14:02:28.283Z,30.60
2022-08-27T14:05:06.021Z,30.60
2022-08-27T14:07:44.952Z,30.60
2022-08-27T14:10:31.587Z,30.60
2022-08-27T14:13:09.272Z,30.60
2022-08-27T14:15:40.000Z,30.60
2022-08-27T14:18:08.559Z,30.60
2022-08-27T14:20:35.609Z,30.60
2022-08-27T14:23:02.251Z,30.40
2022-08-27T14:25:28.877Z,30.40
2022-08-27T14:27:57.209Z,30.30
2022-08-27T14:30:29.102Z,30.20
2022-08-27T14:32:58.431Z,30.10
2022-08-27T14:35:25.666Z,30.10
2022-08-27T14:37:52.302Z,30.10
2022-08-27T14:40:19.581Z,30.10
2022-08-27T14:42:46.345Z,30.10
2022-08-27T14:45:12.991Z,30.20
2022-08-27T14:47:39.744Z,30.20
2022-08-27T14:50:11.090Z,30.30
2022-08-27T14:52:39.268Z,30.30
2022-08-27T14:55:10.411Z,30.30
2022-08-27T14:57:37.386Z,30.30
2022-08-27T15:00:05.589Z,30.20
2022-08-27T15:02:32.209Z,30.20
2022-08-27T15:04:58.906Z,30.20
2022-08-27T15:07:25.640Z,30.10
2022-08-27T15:09:52.261Z,30.10
2022-08-27T15:12:26.553Z,30.00
2022-08-27T15:14:53.513Z,30.00
2022-08-27T15:17:35.154Z,29.90
2022-08-27T15:20:03.893Z,29.90
2022-08-27T15:22:33.770Z,29.80
2022-08-27T15:25:00.411Z,29.80
2022-08-27T15:27:38.176Z,29.80
2022-08-27T15:30:09.968Z,29.80
2022-08-27T15:32:39.379Z,29.90
2022-08-27T15:35:08.230Z,29.80
2022-08-27T15:37:35.146Z,29.80
2022-08-27T15:40:02.243Z,29.80
2022-08-27T15:42:28.976Z,29.70
2022-08-27T15:44:55.978Z,29.70
2022-08-27T15:47:23.503Z,29.70
2022-08-27T15:49:50.173Z,29.70
2022-08-27T15:52:17.825Z,29.60
2022-08-27T15:54:44.738Z,29.60
2022-08-27T15:57:11.394Z,29.60
2022-08-27T15:59:38.087Z,29.70
2022-08-27T16:02:05.905Z,29.60
2022-08-27T16:04:32.631Z,29.60
2022-08-27T16:06:59.307Z,29.70
2022-08-27T16:09:25.988Z,29.60
2022-08-27T16:11:52.634Z,29.60
2022-08-27T16:14:19.399Z,29.60
2022-08-27T16:16:46.415Z,29.40
2022-08-27T16:19:16.485Z,29.40
2022-08-27T16:21:43.499Z,29.40
2022-08-27T16:24:10.849Z,29.30
2022-08-27T16:26:37.840Z,29.20
2022-08-27T16:29:04.837Z,29.10
2022-08-27T16:31:32.787Z,29.00
2022-08-27T16:33:59.938Z,28.90
2022-08-27T16:36:26.681Z,28.80
2022-08-27T16:38:54.230Z,28.60
2022-08-27T16:41:22.403Z,28.40
2022-08-27T16:43:49.359Z,28.20
2022-08-27T16:46:16.075Z,28.00
2022-08-27T16:49:01.675Z,27.80
2022-08-27T16:51:34.745Z,27.60
2022-08-27T16:54:02.535Z,27.40
2022-08-27T16:56:30.308Z,27.30
2022-08-27T16:58:58.469Z,27.10
2022-08-27T17:01:25.350Z,27.00
2022-08-27T17:04:15.388Z,27.00
2022-08-27T17:06:40.984Z,26.90
2022-08-27T17:09:10.361Z,26.80
2022-08-27T17:11:40.448Z,26.70
2022-08-27T17:14:07.989Z,26.60
2022-08-27T17:16:34.846Z,26.50
2022-08-27T17:19:02.192Z,26.40
2022-08-27T17:21:31.599Z,26.40
2022-08-27T17:23:59.357Z,26.30
2022-08-27T17:26:26.179Z,26.30
2022-08-27T17:28:52.983Z,26.20
2022-08-27T17:31:31.270Z,26.20
2022-08-27T17:33:59.538Z,26.10
2022-08-27T17:36:27.084Z,26.10
2022-08-27T17:38:54.532Z,26.10
2022-08-27T17:41:24.245Z,26.10
2022-08-27T17:43:50.950Z,26.10
2022-08-27T17:46:17.646Z,26.10
2022-08-27T17:48:44.348Z,26.10
2022-08-27T17:51:12.128Z,26.10
2022-08-27T17:53:40.794Z,26.00
2022-08-27T17:56:07.411Z,26.00
2022-08-27T17:58:34.073Z,26.00
2022-08-27T18:01:00.787Z,26.00
2022-08-27T18:03:28.484Z,25.90
2022-08-27T18:05:55.630Z,25.90
2022-08-27T18:08:22.259Z,25.90
2022-08-27T18:10:50.135Z,25.90
2022-08-27T18:13:17.592Z,25.90
2022-08-27T18:15:44.341Z,25.90
2022-08-27T18:18:11.482Z,25.80
2022-08-27T18:20:42.663Z,25.80
2022-08-27T18:23:09.636Z,25.80
2022-08-27T18:25:37.058Z,25.70
2022-08-27T18:28:13.093Z,25.70
2022-08-27T18:30:41.564Z,25.70
2022-08-27T18:33:08.403Z,25.70
2022-08-27T18:35:37.676Z,25.70
2022-08-27T18:38:04.512Z,25.70
2022-08-27T18:40:37.856Z,25.70
2022-08-27T18:43:04.781Z,25.70
2022-08-27T18:45:33.141Z,25.70
2022-08-27T18:48:00.018Z,25.70
2022-08-27T18:50:26.751Z,25.70
2022-08-27T18:52:54.004Z,25.70
2022-08-27T18:55:23.327Z,25.70
2022-08-27T18:57:49.992Z,25.70
2022-08-27T19:00:18.849Z,25.70
2022-08-27T19:02:48.936Z,25.70
2022-08-27T19:05:18.630Z,25.70
2022-08-27T19:07:45.319Z,25.60
2022-08-27T19:10:12.460Z,25.60
2022-08-27T19:12:39.981Z,25.50
2022-08-27T19:15:07.781Z,25.50
2022-08-27T19:17:34.815Z,25.50
2022-08-27T19:20:01.941Z,25.50
2022-08-27T19:22:30.604Z,25.50
2022-08-27T19:24:57.420Z,25.50
2022-08-27T19:27:25.165Z,25.50
2022-08-27T19:29:51.986Z,25.50
2022-08-27T19:32:18.755Z,25.40
2022-08-27T19:34:45.413Z,25.40
2022-08-27T19:37:16.876Z,25.40
2022-08-27T19:39:43.628Z,25.30
2022-08-27T19:42:10.490Z,25.30
2022-08-27T19:44:37.220Z,25.30
2022-08-27T19:47:03.984Z,25.30
2022-08-27T19:49:30.609Z,25.30
2022-08-27T19:51:57.296Z,25.30
2022-08-27T19:54:23.975Z,25.30
2022-08-27T19:56:59.382Z,25.30
2022-08-27T19:59:26.018Z,25.30
2022-08-27T20:01:53.824Z,25.30
2022-08-27T20:04:20.849Z,25.30
2022-08-27T20:06:47.630Z,25.20
2022-08-27T20:09:16.469Z,25.30
2022-08-27T20:11:45.789Z,25.30
2022-08-27T20:14:13.130Z,25.30
2022-08-27T20:16:39.834Z,25.30
2022-08-27T20:19:06.899Z,25.30
2022-08-27T20:21:33.568Z,25.30
2022-08-27T20:24:00.281Z,25.30
2022-08-27T20:26:29.258Z,25.30
2022-08-27T20:28:56.171Z,25.30
2022-08-27T20:31:22.881Z,25.30
2022-08-27T20:33:49.924Z,25.30
2022-08-27T20:36:16.588Z,25.30
2022-08-27T20:38:43.323Z,25.20
2022-08-27T20:41:09.974Z,25.20
2022-08-27T20:43:36.635Z,25.20
2022-08-27T20:46:03.423Z,25.10
2022-08-27T20:48:30.277Z,25.10
2022-08-27T20:50:56.921Z,25.00
2022-08-27T20:53:23.577Z,25.00
2022-08-27T20:55:50.291Z,25.00
2022-08-27T20:58:35.492Z,25.00
2022-08-27T21:01:02.193Z,24.90
2022-08-27T21:03:29.228Z,24.90
2022-08-27T21:05:55.941Z,24.80
2022-08-27T21:08:23.269Z,24.70
2022-08-27T21:10:52.275Z,24.70
2022-08-27T21:13:19.443Z,24.60
2022-08-27T21:15:46.075Z,24.60
2022-08-27T21:18:13.211Z,24.50
2022-08-27T21:20:40.000Z,24.50
2022-08-27T21:23:06.634Z,24.50
2022-08-27T21:25:33.414Z,24.40
2022-08-27T21:28:03.345Z,24.40
2022-08-27T21:30:30.186Z,24.30
2022-08-27T21:32:56.919Z,24.30
2022-08-27T21:35:26.454Z,24.30
2022-08-27T21:37:56.873Z,24.20
2022-08-27T21:40:25.130Z,24.20
2022-08-27T21:42:52.716Z,24.10
2022-08-27T21:45:20.110Z,24.10
2022-08-27T21:47:48.148Z,24.10
2022-08-27T21:50:14.950Z,24.00
2022-08-27T21:52:41.596Z,24.00
2022-08-27T21:55:08.803Z,24.00
2022-08-27T21:57:35.487Z,24.00
2022-08-27T22:00:11.758Z,23.90
2022-08-27T22:02:40.674Z,23.90
2022-08-27T22:05:08.570Z,23.90
2022-08-27T22:07:35.261Z,23.90
2022-08-27T22:10:01.893Z,23.90
2022-08-27T22:12:28.533Z,23.80
2022-08-27T22:14:55.193Z,23.80
2022-08-27T22:17:21.914Z,23.80
2022-08-27T22:19:48.597Z,23.80
2022-08-27T22:22:15.222Z,23.80
2022-08-27T22:24:41.845Z,23.80
2022-08-27T22:27:08.482Z,23.80
2022-08-27T22:29:35.141Z,23.80
2022-08-27T22:32:01.883Z,23.80
2022-08-27T22:34:28.562Z,23.80
2022-08-27T22:36:55.200Z,23.80
2022-08-27T22:39:21.819Z,23.80
2022-08-27T22:41:51.024Z,23.80
2022-08-27T22:44:18.046Z,23.80
2022-08-27T22:46:44.757Z,23.70
2022-08-27T22:49:11.547Z,23.70
2022-08-27T22:51:38.189Z,23.70
2022-08-27T22:54:04.929Z,23.70
2022-08-27T22:56:31.558Z,23.70
2022-08-27T22:58:58.187Z,23.60
2022-08-27T23:01:24.848Z,23.60
2022-08-27T23:03:51.538Z,23.60
2022-08-27T23:06:18.221Z,23.60
2022-08-27T23:08:44.906Z,23.60
2022-08-27T23:11:12.318Z,23.60
2022-08-27T23:13:40.336Z,23.60
2022-08-27T23:16:09.017Z,23.60
2022-08-27T23:18:36.254Z,23.50
2022-08-27T23:21:05.411Z,23.50
2022-08-27T23:23:32.861Z,23.40
2022-08-27T23:26:18.122Z,23.40
2022-08-27T23:28:44.907Z,23.40
2022-08-27T23:31:11.842Z,23.40
2022-08-27T23:33:38.583Z,23.40
2022-08-27T23:36:05.546Z,23.40
2022-08-27T23:38:32.190Z,23.40
2022-08-27T23:40:58.845Z,23.40
2022-08-27T23:43:26.813Z,23.40
2022-08-27T23:45:53.473Z,23.30
2022-08-27T23:48:20.120Z,23.30
2022-08-27T23:50:46.724Z,23.30
2022-08-27T23:53:14.587Z,23.30
2022-08-27T23:55:41.355Z,23.20
2022-08-27T23:58:08.305Z,23.20
